sensor_id;sensor_type;location;lat;lon;timestamp;P1;durP1;ratioP1;P2;durP2;ratioP2
29412;SDS011;16389;50.126;8.450;2024-03-08T00:01:09;22.67;;;16.77;;
29412;SDS011;16389;50.126;8.450;2024-03-08T00:03:35;24.85;;;16.98;;
29412;SDS011;16389;50.126;8.450;2024-03-08T00:06:01;22.70;;;16.25;;
29412;SDS011;16389;50.126;8.450;2024-03-08T00:08:27;16.85;;;15.05;;
29412;SDS011;16389;50.126;8.450;2024-03-08T00:10:52;20.42;;;15.18;;
29412;SDS011;16389;50.126;8.450;2024-03-08T00:13:18;28.08;;;15.77;;
29412;SDS011;16389;50.126;8.450;2024-03-08T00:15:47;22.90;;;16.90;;
29412;SDS011;16389;50.126;8.450;2024-03-08T00:18:13;22.23;;;16.02;;
29412;SDS011;16389;50.126;8.450;2024-03-08T00:20:38;18.83;;;15.48;;
29412;SDS011;16389;50.126;8.450;2024-03-08T00:23:04;19.92;;;16.35;;
29412;SDS011;16389;50.126;8.450;2024-03-08T00:25:29;22.85;;;16.70;;
29412;SDS011;16389;50.126;8.450;2024-03-08T00:27:55;24.58;;;16.83;;
29412;SDS011;16389;50.126;8.450;2024-03-08T00:30:22;21.48;;;15.77;;
29412;SDS011;16389;50.126;8.450;2024-03-08T00:32:48;26.83;;;16.92;;
29412;SDS011;16389;50.126;8.450;2024-03-08T00:35:14;25.17;;;16.55;;
29412;SDS011;16389;50.126;8.450;2024-03-08T00:37:40;20.48;;;16.45;;
29412;SDS011;16389;50.126;8.450;2024-03-08T00:40:11;22.83;;;16.80;;
29412;SDS011;16389;50.126;8.450;2024-03-08T00:42:37;21.30;;;16.13;;
29412;SDS011;16389;50.126;8.450;2024-03-08T00:45:04;23.00;;;17.65;;
29412;SDS011;16389;50.126;8.450;2024-03-08T00:47:30;22.15;;;16.00;;
29412;SDS011;16389;50.126;8.450;2024-03-08T00:49:56;23.77;;;17.50;;
29412;SDS011;16389;50.126;8.450;2024-03-08T00:52:22;20.75;;;17.33;;
29412;SDS011;16389;50.126;8.450;2024-03-08T00:54:49;23.40;;;15.95;;
29412;SDS011;16389;50.126;8.450;2024-03-08T00:57:15;25.40;;;16.92;;
29412;SDS011;16389;50.126;8.450;2024-03-08T00:59:40;22.38;;;15.73;;
29412;SDS011;16389;50.126;8.450;2024-03-08T01:02:06;21.33;;;16.55;;
29412;SDS011;16389;50.126;8.450;2024-03-08T01:04:34;26.02;;;17.35;;
29412;SDS011;16389;50.126;8.450;2024-03-08T01:07:00;27.08;;;17.30;;
29412;SDS011;16389;50.126;8.450;2024-03-08T01:09:26;27.48;;;16.83;;
29412;SDS011;16389;50.126;8.450;2024-03-08T01:11:52;19.25;;;14.88;;
29412;SDS011;16389;50.126;8.450;2024-03-08T01:14:22;24.85;;;17.83;;
29412;SDS011;16389;50.126;8.450;2024-03-08T01:16:48;25.65;;;17.23;;
29412;SDS011;16389;50.126;8.450;2024-03-08T01:19:14;24.02;;;17.38;;
29412;SDS011;16389;50.126;8.450;2024-03-08T01:21:40;24.25;;;16.77;;
29412;SDS011;16389;50.126;8.450;2024-03-08T01:24:06;21.35;;;16.48;;
29412;SDS011;16389;50.126;8.450;2024-03-08T01:26:32;18.30;;;15.52;;
29412;SDS011;16389;50.126;8.450;2024-03-08T01:28:59;21.98;;;16.17;;
29412;SDS011;16389;50.126;8.450;2024-03-08T01:31:25;27.33;;;16.42;;
29412;SDS011;16389;50.126;8.450;2024-03-08T01:33:50;26.10;;;17.48;;
29412;SDS011;16389;50.126;8.450;2024-03-08T01:36:16;24.48;;;17.38;;
29412;SDS011;16389;50.126;8.450;2024-03-08T01:38:44;20.83;;;16.55;;
29412;SDS011;16389;50.126;8.450;2024-03-08T01:41:10;23.38;;;17.65;;
29412;SDS011;16389;50.126;8.450;2024-03-08T01:43:35;26.60;;;17.02;;
29412;SDS011;16389;50.126;8.450;2024-03-08T01:46:01;24.80;;;17.33;;
29412;SDS011;16389;50.126;8.450;2024-03-08T01:48:27;26.15;;;17.30;;
29412;SDS011;16389;50.126;8.450;2024-03-08T01:50:54;25.30;;;17.38;;
29412;SDS011;16389;50.126;8.450;2024-03-08T01:53:22;22.48;;;16.27;;
29412;SDS011;16389;50.126;8.450;2024-03-08T01:55:50;30.15;;;18.73;;
29412;SDS011;16389;50.126;8.450;2024-03-08T01:58:19;24.90;;;17.55;;
29412;SDS011;16389;50.126;8.450;2024-03-08T02:00:47;25.88;;;16.17;;
29412;SDS011;16389;50.126;8.450;2024-03-08T02:03:16;21.88;;;15.93;;
29412;SDS011;16389;50.126;8.450;2024-03-08T02:05:42;23.45;;;16.65;;
29412;SDS011;16389;50.126;8.450;2024-03-08T02:08:08;24.75;;;16.42;;
29412;SDS011;16389;50.126;8.450;2024-03-08T02:10:39;29.23;;;18.40;;
29412;SDS011;16389;50.126;8.450;2024-03-08T02:13:11;28.75;;;18.27;;
29412;SDS011;16389;50.126;8.450;2024-03-08T02:15:56;23.83;;;17.08;;
29412;SDS011;16389;50.126;8.450;2024-03-08T02:18:24;27.45;;;17.40;;
29412;SDS011;16389;50.126;8.450;2024-03-08T02:20:57;26.52;;;18.35;;
29412;SDS011;16389;50.126;8.450;2024-03-08T02:23:24;28.92;;;17.55;;
29412;SDS011;16389;50.126;8.450;2024-03-08T02:25:51;25.10;;;16.48;;
29412;SDS011;16389;50.126;8.450;2024-03-08T02:28:18;26.85;;;18.27;;
29412;SDS011;16389;50.126;8.450;2024-03-08T02:30:44;22.30;;;16.73;;
29412;SDS011;16389;50.126;8.450;2024-03-08T02:33:13;28.08;;;17.45;;
29412;SDS011;16389;50.126;8.450;2024-03-08T02:35:43;27.45;;;17.42;;
29412;SDS011;16389;50.126;8.450;2024-03-08T02:38:15;30.83;;;18.88;;
29412;SDS011;16389;50.126;8.450;2024-03-08T02:40:43;28.25;;;17.88;;
29412;SDS011;16389;50.126;8.450;2024-03-08T02:43:10;23.58;;;17.45;;
29412;SDS011;16389;50.126;8.450;2024-03-08T02:45:37;26.23;;;17.90;;
29412;SDS011;16389;50.126;8.450;2024-03-08T02:48:03;30.17;;;17.63;;
29412;SDS011;16389;50.126;8.450;2024-03-08T02:50:31;24.88;;;17.23;;
29412;SDS011;16389;50.126;8.450;2024-03-08T02:52:59;29.75;;;18.30;;
29412;SDS011;16389;50.126;8.450;2024-03-08T02:55:31;28.30;;;18.13;;
29412;SDS011;16389;50.126;8.450;2024-03-08T02:57:58;30.52;;;17.63;;
29412;SDS011;16389;50.126;8.450;2024-03-08T03:00:24;26.15;;;18.00;;
29412;SDS011;16389;50.126;8.450;2024-03-08T03:02:50;31.40;;;19.13;;
29412;SDS011;16389;50.126;8.450;2024-03-08T03:05:21;25.75;;;17.60;;
29412;SDS011;16389;50.126;8.450;2024-03-08T03:07:48;26.98;;;17.90;;
29412;SDS011;16389;50.126;8.450;2024-03-08T03:10:14;26.50;;;18.30;;
29412;SDS011;16389;50.126;8.450;2024-03-08T03:12:43;26.77;;;18.27;;
29412;SDS011;16389;50.126;8.450;2024-03-08T03:15:10;27.08;;;17.75;;
29412;SDS011;16389;50.126;8.450;2024-03-08T03:17:36;30.92;;;18.95;;
29412;SDS011;16389;50.126;8.450;2024-03-08T03:20:04;29.17;;;18.23;;
29412;SDS011;16389;50.126;8.450;2024-03-08T03:22:34;27.33;;;18.83;;
29412;SDS011;16389;50.126;8.450;2024-03-08T03:25:02;29.33;;;19.35;;
29412;SDS011;16389;50.126;8.450;2024-03-08T03:27:29;35.08;;;19.10;;
29412;SDS011;16389;50.126;8.450;2024-03-08T03:29:55;31.40;;;18.45;;
29412;SDS011;16389;50.126;8.450;2024-03-08T03:32:22;31.00;;;20.33;;
29412;SDS011;16389;50.126;8.450;2024-03-08T03:34:48;34.05;;;19.17;;
29412;SDS011;16389;50.126;8.450;2024-03-08T03:37:18;31.33;;;17.83;;
29412;SDS011;16389;50.126;8.450;2024-03-08T03:39:46;26.58;;;17.88;;
29412;SDS011;16389;50.126;8.450;2024-03-08T03:42:17;26.15;;;18.40;;
29412;SDS011;16389;50.126;8.450;2024-03-08T03:44:44;32.60;;;19.63;;
29412;SDS011;16389;50.126;8.450;2024-03-08T03:47:13;30.13;;;19.67;;
29412;SDS011;16389;50.126;8.450;2024-03-08T03:49:42;32.33;;;19.92;;
29412;SDS011;16389;50.126;8.450;2024-03-08T03:52:08;31.80;;;19.13;;
29412;SDS011;16389;50.126;8.450;2024-03-08T03:54:34;32.03;;;18.98;;
29412;SDS011;16389;50.126;8.450;2024-03-08T03:56:59;30.95;;;18.92;;
29412;SDS011;16389;50.126;8.450;2024-03-08T03:59:25;32.85;;;19.10;;
29412;SDS011;16389;50.126;8.450;2024-03-08T04:01:52;35.83;;;19.42;;
29412;SDS011;16389;50.126;8.450;2024-03-08T04:04:18;31.08;;;19.25;;
29412;SDS011;16389;50.126;8.450;2024-03-08T04:06:43;32.58;;;19.48;;
29412;SDS011;16389;50.126;8.450;2024-03-08T04:09:10;30.23;;;18.80;;
29412;SDS011;16389;50.126;8.450;2024-03-08T04:11:37;31.05;;;18.77;;
29412;SDS011;16389;50.126;8.450;2024-03-08T04:14:03;35.60;;;20.08;;
29412;SDS011;16389;50.126;8.450;2024-03-08T04:16:30;28.33;;;19.65;;
29412;SDS011;16389;50.126;8.450;2024-03-08T04:18:56;35.58;;;19.67;;
29412;SDS011;16389;50.126;8.450;2024-03-08T04:21:22;37.72;;;20.58;;
29412;SDS011;16389;50.126;8.450;2024-03-08T04:23:48;29.00;;;19.05;;
29412;SDS011;16389;50.126;8.450;2024-03-08T04:26:13;31.55;;;20.50;;
29412;SDS011;16389;50.126;8.450;2024-03-08T04:28:39;36.47;;;19.42;;
29412;SDS011;16389;50.126;8.450;2024-03-08T04:31:04;33.67;;;20.77;;
29412;SDS011;16389;50.126;8.450;2024-03-08T04:33:31;28.65;;;18.25;;
29412;SDS011;16389;50.126;8.450;2024-03-08T04:35:57;37.00;;;20.58;;
29412;SDS011;16389;50.126;8.450;2024-03-08T04:38:23;31.60;;;19.00;;
29412;SDS011;16389;50.126;8.450;2024-03-08T04:40:50;29.48;;;18.95;;
29412;SDS011;16389;50.126;8.450;2024-03-08T04:43:16;30.50;;;18.67;;
29412;SDS011;16389;50.126;8.450;2024-03-08T04:45:43;29.33;;;19.20;;
29412;SDS011;16389;50.126;8.450;2024-03-08T04:48:09;35.10;;;19.77;;
29412;SDS011;16389;50.126;8.450;2024-03-08T04:50:36;31.67;;;19.58;;
29412;SDS011;16389;50.126;8.450;2024-03-08T04:53:03;33.97;;;19.83;;
29412;SDS011;16389;50.126;8.450;2024-03-08T04:55:29;35.58;;;19.75;;
29412;SDS011;16389;50.126;8.450;2024-03-08T04:57:55;33.08;;;20.02;;
29412;SDS011;16389;50.126;8.450;2024-03-08T05:00:20;36.10;;;19.70;;
29412;SDS011;16389;50.126;8.450;2024-03-08T05:02:46;36.85;;;20.20;;
29412;SDS011;16389;50.126;8.450;2024-03-08T05:05:11;31.13;;;19.92;;
29412;SDS011;16389;50.126;8.450;2024-03-08T05:07:38;36.28;;;20.20;;
29412;SDS011;16389;50.126;8.450;2024-03-08T05:10:05;34.60;;;20.00;;
29412;SDS011;16389;50.126;8.450;2024-03-08T05:12:31;33.72;;;20.83;;
29412;SDS011;16389;50.126;8.450;2024-03-08T05:14:57;34.47;;;19.83;;
29412;SDS011;16389;50.126;8.450;2024-03-08T05:17:23;32.83;;;20.80;;
29412;SDS011;16389;50.126;8.450;2024-03-08T05:19:49;35.30;;;20.75;;
29412;SDS011;16389;50.126;8.450;2024-03-08T05:22:15;36.38;;;21.77;;
29412;SDS011;16389;50.126;8.450;2024-03-08T05:24:42;37.35;;;21.13;;
29412;SDS011;16389;50.126;8.450;2024-03-08T05:27:07;40.33;;;21.90;;
29412;SDS011;16389;50.126;8.450;2024-03-08T05:29:33;35.60;;;19.33;;
29412;SDS011;16389;50.126;8.450;2024-03-08T05:31:59;39.75;;;21.20;;
29412;SDS011;16389;50.126;8.450;2024-03-08T05:34:24;35.20;;;20.48;;
29412;SDS011;16389;50.126;8.450;2024-03-08T05:36:51;34.00;;;20.35;;
29412;SDS011;16389;50.126;8.450;2024-03-08T05:39:17;36.50;;;20.08;;
29412;SDS011;16389;50.126;8.450;2024-03-08T05:41:43;41.25;;;22.67;;
29412;SDS011;16389;50.126;8.450;2024-03-08T05:44:11;36.10;;;20.73;;
29412;SDS011;16389;50.126;8.450;2024-03-08T05:46:37;32.80;;;20.15;;
29412;SDS011;16389;50.126;8.450;2024-03-08T05:49:06;31.77;;;21.02;;
29412;SDS011;16389;50.126;8.450;2024-03-08T05:51:35;32.15;;;20.77;;
29412;SDS011;16389;50.126;8.450;2024-03-08T05:54:09;36.05;;;20.13;;
29412;SDS011;16389;50.126;8.450;2024-03-08T05:56:36;37.38;;;21.63;;
29412;SDS011;16389;50.126;8.450;2024-03-08T05:59:02;35.03;;;20.27;;
29412;SDS011;16389;50.126;8.450;2024-03-08T06:01:29;33.08;;;20.65;;
29412;SDS011;16389;50.126;8.450;2024-03-08T06:03:55;32.30;;;20.20;;
29412;SDS011;16389;50.126;8.450;2024-03-08T06:06:22;30.85;;;20.50;;
29412;SDS011;16389;50.126;8.450;2024-03-08T06:08:48;39.05;;;21.50;;
29412;SDS011;16389;50.126;8.450;2024-03-08T06:11:14;35.28;;;20.55;;
29412;SDS011;16389;50.126;8.450;2024-03-08T06:13:42;40.97;;;21.02;;
29412;SDS011;16389;50.126;8.450;2024-03-08T06:16:08;36.58;;;19.92;;
29412;SDS011;16389;50.126;8.450;2024-03-08T06:18:34;38.15;;;20.70;;
29412;SDS011;16389;50.126;8.450;2024-03-08T06:21:02;42.92;;;22.30;;
29412;SDS011;16389;50.126;8.450;2024-03-08T06:23:33;40.13;;;21.83;;
29412;SDS011;16389;50.126;8.450;2024-03-08T06:26:03;33.22;;;19.90;;
29412;SDS011;16389;50.126;8.450;2024-03-08T06:28:34;33.22;;;20.00;;
29412;SDS011;16389;50.126;8.450;2024-03-08T06:31:00;39.92;;;20.17;;
29412;SDS011;16389;50.126;8.450;2024-03-08T06:33:27;40.22;;;21.67;;
29412;SDS011;16389;50.126;8.450;2024-03-08T06:35:56;36.92;;;20.80;;
29412;SDS011;16389;50.126;8.450;2024-03-08T06:38:23;36.38;;;21.60;;
29412;SDS011;16389;50.126;8.450;2024-03-08T06:40:49;36.15;;;20.15;;
29412;SDS011;16389;50.126;8.450;2024-03-08T06:43:16;44.20;;;22.77;;
29412;SDS011;16389;50.126;8.450;2024-03-08T06:45:43;29.90;;;19.75;;
29412;SDS011;16389;50.126;8.450;2024-03-08T06:48:18;38.38;;;21.20;;
29412;SDS011;16389;50.126;8.450;2024-03-08T06:53:12;28.05;;;18.70;;
29412;SDS011;16389;50.126;8.450;2024-03-08T06:55:38;35.53;;;19.88;;
29412;SDS011;16389;50.126;8.450;2024-03-08T06:58:04;37.65;;;21.92;;
29412;SDS011;16389;50.126;8.450;2024-03-08T07:00:29;32.30;;;19.17;;
29412;SDS011;16389;50.126;8.450;2024-03-08T07:02:55;36.47;;;21.45;;
29412;SDS011;16389;50.126;8.450;2024-03-08T07:05:25;30.30;;;20.63;;
29412;SDS011;16389;50.126;8.450;2024-03-08T07:07:51;32.97;;;20.95;;
29412;SDS011;16389;50.126;8.450;2024-03-08T07:10:17;31.75;;;19.92;;
29412;SDS011;16389;50.126;8.450;2024-03-08T07:12:44;34.38;;;20.65;;
29412;SDS011;16389;50.126;8.450;2024-03-08T07:15:10;29.45;;;19.35;;
29412;SDS011;16389;50.126;8.450;2024-03-08T07:17:39;31.92;;;20.15;;
29412;SDS011;16389;50.126;8.450;2024-03-08T07:20:05;29.45;;;19.00;;
29412;SDS011;16389;50.126;8.450;2024-03-08T07:22:32;27.23;;;18.90;;
29412;SDS011;16389;50.126;8.450;2024-03-08T07:24:58;29.70;;;19.67;;
29412;SDS011;16389;50.126;8.450;2024-03-08T07:27:33;27.85;;;18.17;;
29412;SDS011;16389;50.126;8.450;2024-03-08T07:30:01;35.90;;;20.67;;
29412;SDS011;16389;50.126;8.450;2024-03-08T07:32:28;31.65;;;18.23;;
29412;SDS011;16389;50.126;8.450;2024-03-08T07:34:55;31.05;;;20.02;;
29412;SDS011;16389;50.126;8.450;2024-03-08T07:37:21;26.52;;;18.60;;
29412;SDS011;16389;50.126;8.450;2024-03-08T07:39:47;31.65;;;19.25;;
29412;SDS011;16389;50.126;8.450;2024-03-08T07:42:12;26.20;;;18.58;;
29412;SDS011;16389;50.126;8.450;2024-03-08T07:44:38;31.05;;;18.70;;
29412;SDS011;16389;50.126;8.450;2024-03-08T07:47:04;26.23;;;17.63;;
29412;SDS011;16389;50.126;8.450;2024-03-08T07:49:30;31.17;;;19.30;;
29412;SDS011;16389;50.126;8.450;2024-03-08T07:51:56;29.88;;;18.58;;
29412;SDS011;16389;50.126;8.450;2024-03-08T07:54:22;29.50;;;18.92;;
29412;SDS011;16389;50.126;8.450;2024-03-08T07:56:48;25.45;;;18.48;;
29412;SDS011;16389;50.126;8.450;2024-03-08T07:59:13;24.67;;;17.95;;
29412;SDS011;16389;50.126;8.450;2024-03-08T08:01:39;27.52;;;19.13;;
29412;SDS011;16389;50.126;8.450;2024-03-08T08:04:05;25.20;;;17.55;;
29412;SDS011;16389;50.126;8.450;2024-03-08T08:06:31;24.83;;;18.15;;
29412;SDS011;16389;50.126;8.450;2024-03-08T08:08:58;29.38;;;20.85;;
29412;SDS011;16389;50.126;8.450;2024-03-08T08:11:25;28.73;;;19.33;;
29412;SDS011;16389;50.126;8.450;2024-03-08T08:13:53;27.27;;;18.38;;
29412;SDS011;16389;50.126;8.450;2024-03-08T08:16:23;28.75;;;18.27;;
29412;SDS011;16389;50.126;8.450;2024-03-08T08:18:48;30.10;;;19.70;;
29412;SDS011;16389;50.126;8.450;2024-03-08T08:21:15;28.83;;;19.08;;
29412;SDS011;16389;50.126;8.450;2024-03-08T08:23:40;24.42;;;19.00;;
29412;SDS011;16389;50.126;8.450;2024-03-08T08:26:06;25.25;;;19.33;;
29412;SDS011;16389;50.126;8.450;2024-03-08T08:28:32;23.50;;;19.10;;
29412;SDS011;16389;50.126;8.450;2024-03-08T08:30:58;27.83;;;19.23;;
29412;SDS011;16389;50.126;8.450;2024-03-08T08:33:24;22.95;;;18.55;;
29412;SDS011;16389;50.126;8.450;2024-03-08T08:35:50;27.40;;;18.75;;
29412;SDS011;16389;50.126;8.450;2024-03-08T08:38:18;24.90;;;18.70;;
29412;SDS011;16389;50.126;8.450;2024-03-08T08:40:45;25.23;;;18.83;;
29412;SDS011;16389;50.126;8.450;2024-03-08T08:43:12;23.27;;;18.55;;
29412;SDS011;16389;50.126;8.450;2024-03-08T08:45:38;22.40;;;18.38;;
29412;SDS011;16389;50.126;8.450;2024-03-08T08:48:03;23.05;;;18.58;;
29412;SDS011;16389;50.126;8.450;2024-03-08T08:50:30;22.58;;;18.55;;
29412;SDS011;16389;50.126;8.450;2024-03-08T08:52:56;24.63;;;19.48;;
29412;SDS011;16389;50.126;8.450;2024-03-08T08:55:22;24.58;;;18.50;;
29412;SDS011;16389;50.126;8.450;2024-03-08T08:57:51;20.92;;;17.77;;
29412;SDS011;16389;50.126;8.450;2024-03-08T09:00:17;25.50;;;18.77;;
29412;SDS011;16389;50.126;8.450;2024-03-08T09:02:49;23.52;;;18.33;;
29412;SDS011;16389;50.126;8.450;2024-03-08T09:05:16;25.55;;;18.52;;
29412;SDS011;16389;50.126;8.450;2024-03-08T09:07:42;24.27;;;18.90;;
29412;SDS011;16389;50.126;8.450;2024-03-08T09:10:09;21.05;;;18.77;;
29412;SDS011;16389;50.126;8.450;2024-03-08T09:12:37;21.25;;;18.02;;
29412;SDS011;16389;50.126;8.450;2024-03-08T09:15:06;23.05;;;18.42;;
29412;SDS011;16389;50.126;8.450;2024-03-08T09:17:35;21.83;;;18.08;;
29412;SDS011;16389;50.126;8.450;2024-03-08T09:20:01;20.52;;;18.30;;
29412;SDS011;16389;50.126;8.450;2024-03-08T09:22:29;23.42;;;17.83;;
29412;SDS011;16389;50.126;8.450;2024-03-08T09:24:54;21.85;;;18.48;;
29412;SDS011;16389;50.126;8.450;2024-03-08T09:27:22;24.98;;;18.10;;
29412;SDS011;16389;50.126;8.450;2024-03-08T09:29:48;21.70;;;18.90;;
29412;SDS011;16389;50.126;8.450;2024-03-08T09:32:14;19.95;;;17.85;;
29412;SDS011;16389;50.126;8.450;2024-03-08T09:34:39;25.17;;;18.80;;
29412;SDS011;16389;50.126;8.450;2024-03-08T09:37:05;21.42;;;17.83;;
29412;SDS011;16389;50.126;8.450;2024-03-08T09:39:30;20.00;;;17.90;;
29412;SDS011;16389;50.126;8.450;2024-03-08T09:41:58;19.00;;;16.52;;
29412;SDS011;16389;50.126;8.450;2024-03-08T09:44:23;19.58;;;17.00;;
29412;SDS011;16389;50.126;8.450;2024-03-08T09:46:50;17.52;;;15.63;;
29412;SDS011;16389;50.126;8.450;2024-03-08T09:49:18;17.17;;;15.45;;
29412;SDS011;16389;50.126;8.450;2024-03-08T09:51:44;18.50;;;16.63;;
29412;SDS011;16389;50.126;8.450;2024-03-08T09:54:11;17.23;;;15.40;;
29412;SDS011;16389;50.126;8.450;2024-03-08T09:56:37;17.17;;;15.45;;
29412;SDS011;16389;50.126;8.450;2024-03-08T09:59:06;21.80;;;16.15;;
29412;SDS011;16389;50.126;8.450;2024-03-08T10:01:40;17.63;;;15.40;;
29412;SDS011;16389;50.126;8.450;2024-03-08T10:04:06;18.05;;;16.15;;
29412;SDS011;16389;50.126;8.450;2024-03-08T10:06:32;16.35;;;14.77;;
29412;SDS011;16389;50.126;8.450;2024-03-08T10:08:57;16.45;;;14.73;;
29412;SDS011;16389;50.126;8.450;2024-03-08T10:11:26;17.13;;;15.35;;
29412;SDS011;16389;50.126;8.450;2024-03-08T10:13:52;15.90;;;14.40;;
29412;SDS011;16389;50.126;8.450;2024-03-08T10:16:18;16.35;;;14.85;;
29412;SDS011;16389;50.126;8.450;2024-03-08T10:18:44;16.80;;;15.25;;
29412;SDS011;16389;50.126;8.450;2024-03-08T10:21:11;16.13;;;14.65;;
29412;SDS011;16389;50.126;8.450;2024-03-08T10:23:36;15.45;;;13.85;;
29412;SDS011;16389;50.126;8.450;2024-03-08T10:26:09;15.55;;;13.93;;
29412;SDS011;16389;50.126;8.450;2024-03-08T10:28:46;15.40;;;14.05;;
29412;SDS011;16389;50.126;8.450;2024-03-08T10:31:13;15.20;;;13.70;;
29412;SDS011;16389;50.126;8.450;2024-03-08T10:33:43;14.70;;;13.30;;
29412;SDS011;16389;50.126;8.450;2024-03-08T10:36:09;14.95;;;13.70;;
29412;SDS011;16389;50.126;8.450;2024-03-08T10:38:37;14.15;;;12.75;;
29412;SDS011;16389;50.126;8.450;2024-03-08T10:41:07;19.55;;;13.38;;
29412;SDS011;16389;50.126;8.450;2024-03-08T10:43:44;14.80;;;13.60;;
29412;SDS011;16389;50.126;8.450;2024-03-08T10:46:50;15.00;;;13.70;;
29412;SDS011;16389;50.126;8.450;2024-03-08T10:49:19;14.57;;;13.05;;
29412;SDS011;16389;50.126;8.450;2024-03-08T10:51:50;14.18;;;13.07;;
29412;SDS011;16389;50.126;8.450;2024-03-08T10:54:18;15.15;;;13.75;;
29412;SDS011;16389;50.126;8.450;2024-03-08T10:56:46;15.43;;;14.00;;
29412;SDS011;16389;50.126;8.450;2024-03-08T10:59:15;14.82;;;13.63;;
29412;SDS011;16389;50.126;8.450;2024-03-08T11:01:42;13.90;;;12.75;;
29412;SDS011;16389;50.126;8.450;2024-03-08T11:04:07;14.35;;;13.15;;
29412;SDS011;16389;50.126;8.450;2024-03-08T11:09:02;13.43;;;12.52;;
29412;SDS011;16389;50.126;8.450;2024-03-08T11:11:29;14.20;;;13.10;;
29412;SDS011;16389;50.126;8.450;2024-03-08T11:13:57;14.30;;;13.20;;
29412;SDS011;16389;50.126;8.450;2024-03-08T11:19:01;14.38;;;13.38;;
29412;SDS011;16389;50.126;8.450;2024-03-08T11:21:48;13.05;;;12.10;;
29412;SDS011;16389;50.126;8.450;2024-03-08T11:24:22;13.15;;;12.15;;
29412;SDS011;16389;50.126;8.450;2024-03-08T11:26:48;13.00;;;12.07;;
29412;SDS011;16389;50.126;8.450;2024-03-08T11:32:10;13.63;;;12.65;;
29412;SDS011;16389;50.126;8.450;2024-03-08T11:34:47;13.50;;;12.57;;
29412;SDS011;16389;50.126;8.450;2024-03-08T11:37:17;16.95;;;15.50;;
29412;SDS011;16389;50.126;8.450;2024-03-08T11:39:47;15.88;;;14.55;;
29412;SDS011;16389;50.126;8.450;2024-03-08T11:42:14;16.23;;;14.82;;
29412;SDS011;16389;50.126;8.450;2024-03-08T11:44:42;13.57;;;12.60;;
29412;SDS011;16389;50.126;8.450;2024-03-08T11:47:09;14.63;;;13.32;;
29412;SDS011;16389;50.126;8.450;2024-03-08T11:49:36;14.25;;;13.25;;
29412;SDS011;16389;50.126;8.450;2024-03-08T11:52:02;21.52;;;19.30;;
29412;SDS011;16389;50.126;8.450;2024-03-08T11:54:28;14.45;;;13.45;;
29412;SDS011;16389;50.126;8.450;2024-03-08T11:56:55;13.68;;;12.55;;
29412;SDS011;16389;50.126;8.450;2024-03-08T11:59:27;13.60;;;12.48;;
29412;SDS011;16389;50.126;8.450;2024-03-08T12:01:59;12.23;;;11.32;;
29412;SDS011;16389;50.126;8.450;2024-03-08T12:04:27;16.77;;;15.25;;
29412;SDS011;16389;50.126;8.450;2024-03-08T12:06:52;13.93;;;13.02;;
29412;SDS011;16389;50.126;8.450;2024-03-08T12:09:18;18.40;;;16.90;;
29412;SDS011;16389;50.126;8.450;2024-03-08T12:11:46;16.88;;;15.38;;
29412;SDS011;16389;50.126;8.450;2024-03-08T12:14:15;16.83;;;15.52;;
29412;SDS011;16389;50.126;8.450;2024-03-08T12:16:42;15.48;;;14.38;;
29412;SDS011;16389;50.126;8.450;2024-03-08T12:19:08;14.50;;;13.60;;
29412;SDS011;16389;50.126;8.450;2024-03-08T12:21:35;19.13;;;17.65;;
29412;SDS011;16389;50.126;8.450;2024-03-08T12:24:02;15.38;;;14.27;;
29412;SDS011;16389;50.126;8.450;2024-03-08T12:26:28;15.27;;;14.20;;
29412;SDS011;16389;50.126;8.450;2024-03-08T12:28:53;14.25;;;13.43;;
29412;SDS011;16389;50.126;8.450;2024-03-08T12:31:39;14.05;;;13.15;;
29412;SDS011;16389;50.126;8.450;2024-03-08T12:34:04;16.50;;;15.40;;
29412;SDS011;16389;50.126;8.450;2024-03-08T12:36:30;16.00;;;14.90;;
29412;SDS011;16389;50.126;8.450;2024-03-08T12:38:55;15.68;;;14.68;;
29412;SDS011;16389;50.126;8.450;2024-03-08T12:41:22;15.57;;;14.57;;
29412;SDS011;16389;50.126;8.450;2024-03-08T12:43:48;21.48;;;19.58;;
29412;SDS011;16389;50.126;8.450;2024-03-08T12:46:20;18.10;;;16.90;;
29412;SDS011;16389;50.126;8.450;2024-03-08T12:48:51;16.20;;;15.07;;
29412;SDS011;16389;50.126;8.450;2024-03-08T12:51:18;17.85;;;16.55;;
29412;SDS011;16389;50.126;8.450;2024-03-08T12:53:45;19.30;;;17.73;;
29412;SDS011;16389;50.126;8.450;2024-03-08T12:56:12;18.27;;;16.88;;
29412;SDS011;16389;50.126;8.450;2024-03-08T12:58:39;18.40;;;16.90;;
29412;SDS011;16389;50.126;8.450;2024-03-08T13:01:05;19.35;;;17.65;;
29412;SDS011;16389;50.126;8.450;2024-03-08T13:03:32;19.42;;;17.75;;
29412;SDS011;16389;50.126;8.450;2024-03-08T13:06:01;16.90;;;15.55;;
29412;SDS011;16389;50.126;8.450;2024-03-08T13:08:27;16.60;;;15.32;;
29412;SDS011;16389;50.126;8.450;2024-03-08T13:10:54;16.40;;;14.93;;
29412;SDS011;16389;50.126;8.450;2024-03-08T13:13:20;18.25;;;16.50;;
29412;SDS011;16389;50.126;8.450;2024-03-08T13:15:45;19.80;;;16.13;;
29412;SDS011;16389;50.126;8.450;2024-03-08T13:18:11;16.35;;;14.88;;
29412;SDS011;16389;50.126;8.450;2024-03-08T13:20:37;20.55;;;14.52;;
29412;SDS011;16389;50.126;8.450;2024-03-08T13:23:03;17.70;;;16.00;;
29412;SDS011;16389;50.126;8.450;2024-03-08T13:25:30;16.98;;;15.38;;
29412;SDS011;16389;50.126;8.450;2024-03-08T13:27:56;16.17;;;14.77;;
29412;SDS011;16389;50.126;8.450;2024-03-08T13:30:24;16.25;;;14.75;;
29412;SDS011;16389;50.126;8.450;2024-03-08T13:32:51;16.63;;;15.23;;
29412;SDS011;16389;50.126;8.450;2024-03-08T13:35:17;15.52;;;14.23;;
29412;SDS011;16389;50.126;8.450;2024-03-08T13:37:49;16.00;;;14.80;;
29412;SDS011;16389;50.126;8.450;2024-03-08T13:40:15;14.95;;;13.70;;
29412;SDS011;16389;50.126;8.450;2024-03-08T13:42:43;16.15;;;15.05;;
29412;SDS011;16389;50.126;8.450;2024-03-08T13:45:10;16.25;;;15.05;;
29412;SDS011;16389;50.126;8.450;2024-03-08T13:47:36;16.20;;;15.07;;
29412;SDS011;16389;50.126;8.450;2024-03-08T13:50:04;15.15;;;14.10;;
29412;SDS011;16389;50.126;8.450;2024-03-08T13:52:32;15.98;;;14.75;;
29412;SDS011;16389;50.126;8.450;2024-03-08T13:54:59;16.45;;;15.35;;
29412;SDS011;16389;50.126;8.450;2024-03-08T13:57:25;17.17;;;15.98;;
29412;SDS011;16389;50.126;8.450;2024-03-08T13:59:52;16.10;;;15.00;;
29412;SDS011;16389;50.126;8.450;2024-03-08T14:02:18;16.00;;;14.70;;
29412;SDS011;16389;50.126;8.450;2024-03-08T14:04:44;16.35;;;15.25;;
29412;SDS011;16389;50.126;8.450;2024-03-08T14:07:10;15.80;;;14.60;;
29412;SDS011;16389;50.126;8.450;2024-03-08T14:09:36;16.27;;;15.20;;
29412;SDS011;16389;50.126;8.450;2024-03-08T14:12:08;16.00;;;14.65;;
29412;SDS011;16389;50.126;8.450;2024-03-08T14:14:34;16.20;;;14.90;;
29412;SDS011;16389;50.126;8.450;2024-03-08T14:17:02;17.00;;;15.70;;
29412;SDS011;16389;50.126;8.450;2024-03-08T14:19:29;16.73;;;15.23;;
29412;SDS011;16389;50.126;8.450;2024-03-08T14:21:59;16.15;;;14.75;;
29412;SDS011;16389;50.126;8.450;2024-03-08T14:24:25;16.27;;;14.88;;
29412;SDS011;16389;50.126;8.450;2024-03-08T14:26:50;15.82;;;14.20;;
29412;SDS011;16389;50.126;8.450;2024-03-08T14:29:16;15.82;;;14.23;;
29412;SDS011;16389;50.126;8.450;2024-03-08T14:31:44;15.40;;;13.95;;